METAR Data
IDs: Format: Raw Decoded Include TAF

Data at: 0105 UTC 06 Dec 2019

KDTA 060055Z AUTO 35004KT 10SM OVC060 03/02 A3022 RMK AO1
KDTA 060035Z AUTO 32004KT 10SM OVC060 04/02 A3022 RMK AO1
KDTA 060015Z AUTO 33004KT 10SM OVC060 05/02 A3021 RMK AO1
KDTA 052355Z AUTO 34004KT 10SM OVC060 05/02 A3020 RMK AO1
KDTA 052335Z AUTO 34003KT 10SM OVC060 06/02 A3020 RMK AO1
KDTA 052315Z AUTO 32003KT 10SM OVC060 06/02 A3019 RMK AO1
KDTA 052255Z AUTO 32003KT 10SM OVC060 06/02 A3019 RMK AO1
KDTA 052235Z AUTO 31003KT 10SM OVC050 06/02 A3018 RMK AO1
KDTA 052215Z AUTO 00000KT 10SM OVC050 06/01 A3017 RMK AO1
KDTA 052155Z AUTO 00000KT 10SM SCT050 OVC060 06/02 A3017 RMK AO1
KDTA 052135Z AUTO 00000KT 10SM BKN047 OVC060 06/01 A3016 RMK AO1
KDTA 052115Z AUTO 00000KT 10SM BKN047 OVC055 06/02 A3016 RMK AO1
KDTA 052055Z AUTO 00000KT 10SM SCT045 OVC055 05/02 A3016 RMK AO1
KDTA 052035Z AUTO 32003KT 10SM SCT045 OVC055 05/02 A3016 RMK AO1
KDTA 052015Z AUTO 00000KT 10SM SCT048 OVC055 05/01 A3015 RMK AO1
KDTA 051955Z AUTO 00000KT 10SM SCT013 BKN048 OVC055 05/02 A3015 RMK AO1
KDTA 051935Z AUTO 00000KT 10SM SCT013 OVC050 05/02 A3016 RMK AO1
KDTA 051915Z AUTO 25004KT 10SM BKN050 OVC065 05/02 A3014 RMK AO1
KDTA 051855Z AUTO 17004KT 10SM SCT055 OVC065 05/02 A3014 RMK AO1
KDTA 051835Z AUTO 16004KT 10SM SCT049 OVC065 04/02 A3014 RMK AO1
KDTA 051815Z AUTO 18004KT 10SM BKN049 OVC070 04/02 A3015 RMK AO1
KDTA 051755Z AUTO 17005KT 10SM BKN060 OVC070 03/02 A3014 RMK AO1
KDTA 051735Z AUTO 19007KT 10SM SCT048 BKN050 OVC070 03/02 A3014 RMK AO1
KDTA 051715Z AUTO 17005KT 10SM BKN050 OVC070 03/02 A3013 RMK AO1
KDTA 051655Z AUTO 18007KT 10SM BKN050 OVC065 03/02 A3012 RMK AO1
KDTA 051635Z AUTO 18005KT 10SM SCT050 OVC065 03/02 A3011 RMK AO1
KDTA 051615Z AUTO 17008KT 10SM SCT055 OVC065 02/02 A3009 RMK AO1
KDTA 051555Z AUTO 17007KT 10SM BKN055 OVC065 02/01 A3008 RMK AO1
KDTA 051535Z AUTO 18008KT 10SM OVC055 02/01 A3007 RMK AO1
KDTA 051515Z AUTO 18009KT 10SM BKN055 OVC070 01/01 A3006 RMK AO1
KDTA 051455Z AUTO 17006KT 10SM OVC070 01/01 A3004 RMK AO1
KDTA 051436Z AUTO 16008KT 10SM OVC070 01/01 A3003 RMK AO1
KDTA 051415Z AUTO 17008KT 10SM SCT055 OVC070 01/01 A3002 RMK AO1
KDTA 051355Z AUTO 17008KT 10SM BKN055 OVC070 01/01 A3001 RMK AO1
KDTA 051335Z AUTO 17008KT 10SM OVC065 01/01 A2999 RMK AO1
KDTA 051315Z AUTO 17008KT 10SM OVC065 01/01 A2998 RMK AO1
KDTA 051255Z AUTO 17007KT 10SM OVC065 01/01 A2998 RMK AO1
KDTA 051235Z AUTO 17008KT 10SM SCT065 01/00 A2996 RMK AO1
KDTA 051215Z AUTO 18008KT 10SM CLR 01/01 A2996 RMK AO1
KDTA 051155Z AUTO 18008KT 10SM SCT044 01/01 A2995 RMK AO1
KDTA 051135Z AUTO 18008KT 10SM CLR 01/01 A2995 RMK AO1
KDTA 051115Z AUTO 17010KT 10SM CLR 02/01 A2994 RMK AO1
KDTA 051055Z AUTO 17010KT 10SM CLR 02/01 A2993 RMK AO1
KDTA 051035Z AUTO 17013KT 10SM SCT060 02/01 A2993 RMK AO1
KDTA 051015Z AUTO 17010KT 10SM CLR 02/01 A2993 RMK AO1
KDTA 050955Z AUTO 18007KT 10SM CLR 01/01 A2993 RMK AO1
KDTA 050935Z AUTO 19007KT 10SM SCT013 02/01 A2993 RMK AO1
KDTA 050915Z AUTO 18007KT 10SM CLR 02/02 A2992 RMK AO1
KDTA 050855Z AUTO 17008KT 10SM SCT046 02/02 A2991 RMK AO1
KDTA 050835Z AUTO 17008KT 3SM SCT075 01/01 A2991 RMK AO1
KDTA 050815Z AUTO 19005KT 3/4SM BKN075 00/00 A2991 RMK AO1
KDTA 050755Z AUTO 21003KT 3/4SM OVC075 00/00 A2990 RMK AO1
KDTA 050735Z AUTO 18003KT 1SM OVC075 00/00 A2990 RMK AO1
KDTA 050715Z AUTO 16003KT 3/4SM OVC075 00/00 A2990 RMK AO1
KDTA 050655Z AUTO 17006KT 1/2SM BKN017 OVC075 00/00 A2990 RMK AO1
KDTA 050635Z AUTO 22004KT 3/4SM OVC019 01/01 A2990 RMK AO1
KDTA 050615Z AUTO 20004KT 3/4SM BKN019 OVC024 01/01 A2990 RMK AO1
KDTA 050555Z AUTO 21004KT 1/2SM BKN019 BKN024 OVC036 00/00 A2990 RMK AO1
KDTA 050535Z AUTO 23003KT 3/4SM BKN021 OVC031 00/00 A2989 RMK AO1
KDTA 050515Z AUTO 00000KT 1SM OVC023 00/00 A2989 RMK AO1
KDTA 050455Z AUTO 00000KT 1SM BKN023 OVC030 00/00 A2989 RMK AO1
KDTA 050435Z AUTO 00000KT 3/4SM OVC028 00/00 A2989 RMK AO1
KDTA 050415Z AUTO 19003KT 3/4SM OVC030 00/00 A2990 RMK AO1
KDTA 050355Z AUTO 18003KT 1 3/4SM OVC032 01/00 A2989 RMK AO1
KDTA 050335Z AUTO 00000KT 2SM OVC036 01/00 A2989 RMK AO1
KDTA 050315Z AUTO 00000KT 1 3/4SM OVC034 01/00 A2989 RMK AO1
KDTA 050255Z AUTO 23004KT 2 1/2SM OVC036 01/00 A2989 RMK AO1
KDTA 050235Z AUTO 27004KT 3SM OVC036 01/00 A2988 RMK AO1
KDTA 050215Z AUTO 33006KT 5SM BKN034 OVC041 01/00 A2987 RMK AO1
KDTA 050155Z AUTO 34007KT 7SM BKN043 BKN070 01/00 A2987 RMK AO1
KDTA 050135Z AUTO 01004KT 7SM BKN070 01/00 A2987 RMK AO1
KDTA 050115Z AUTO 02005KT 7SM SCT060 BKN075 BKN085 01/00 A2987 RMK AO1
KDTA 050055Z AUTO 02007KT 7SM SCT075 SCT085 01/00 A2988 RMK AO1
KDTA 050035Z AUTO 01003KT 7SM BKN085 01/00 A2991 RMK AO1
KDTA 050015Z AUTO 01005KT 7SM BKN085 02/00 A2991 RMK AO1
KDTA 042356Z AUTO 31004KT 7SM OVC095 02/00 A2993 RMK AO1
KDTA 042335Z AUTO 29006KT 7SM SCT095 02/00 A2994 RMK AO1
KDTA 042315Z AUTO 29005KT 7SM SCT043 SCT049 03/00 A2994 RMK AO1
KDTA 042255Z AUTO 00000KT 10SM SCT043 SCT049 03/00 A2994 RMK AO1
KDTA 042235Z AUTO 00000KT 10SM CLR 03/00 A2995 RMK AO1
KDTA 042215Z AUTO 00000KT 10SM CLR 03/00 A2996 RMK AO1
KDTA 042155Z AUTO 00000KT 10SM CLR 03/00 A2996 RMK AO1
KDTA 042135Z AUTO 00000KT 10SM SCT100 03/00 A2997 RMK AO1
KDTA 042115Z AUTO 00000KT 10SM BKN100 03/00 A2998 RMK AO1
KDTA 042055Z AUTO 12003KT 10SM BKN100 03/00 A2998 RMK AO1
KDTA 042035Z AUTO 00000KT 10SM BKN100 02/00 A2999 RMK AO1
KDTA 042015Z AUTO 00000KT 10SM BKN100 02/00 A3001 RMK AO1
KDTA 041955Z AUTO 00000KT 10SM CLR 02/M01 A3002 RMK AO1
KDTA 041935Z AUTO 00000KT 10SM CLR 02/M01 A3003 RMK AO1
KDTA 041915Z AUTO 22005KT 10SM CLR 02/00 A3004 RMK AO1
KDTA 041855Z AUTO 17005KT 10SM CLR 02/M01 A3005 RMK AO1
KDTA 041835Z AUTO 16003KT 7SM CLR 01/M01 A3006 RMK AO1
KDTA 041815Z AUTO 20004KT 5SM CLR 00/M01 A3007 RMK AO1
KDTA 041755Z AUTO 22006KT 7SM CLR 00/M01 A3008 RMK AO1
KDTA 041735Z AUTO 23005KT 10SM CLR 01/00 A3008 RMK AO1
KDTA 041715Z AUTO 00000KT 10SM CLR 00/M01 A3007 RMK AO1
KDTA 041655Z AUTO 00000KT 10SM CLR 00/M01 A3008 RMK AO1
KDTA 041635Z AUTO 22003KT 7SM CLR 00/M01 A3008 RMK AO1
KDTA 041615Z AUTO 00000KT 7SM CLR 00/M01 A3008 RMK AO1
KDTA 041555Z AUTO 00000KT 4SM CLR M01/M01 A3008 RMK AO1
KDTA 041535Z AUTO 00000KT 2 1/2SM CLR M02/M02 A3008 RMK AO1
KDTA 041515Z AUTO 13004KT 1 1/2SM VV007 M03/M03 A3008 RMK AO1
KDTA 041455Z AUTO 00000KT 1SM VV007 M03/M03 A3009 RMK AO1
KDTA 041435Z AUTO 00000KT 1SM VV007 M03/M03 A3010 RMK AO1
KDTA 041415Z AUTO 31003KT 1 1/2SM VV007 M03/M03 A3010 RMK AO1
KDTA 041355Z AUTO 00000KT 1 1/2SM VV007 M03/M03 A3009 RMK AO1
KDTA 041335Z AUTO 30003KT 1 3/4SM VV007 M03/M03 A3009 RMK AO1
KDTA 041315Z AUTO 00000KT 2SM CLR M02/M03 A3008 RMK AO1